sensor_id;sensor_type;location;lat;lon;timestamp;P1;durP1;ratioP1;P2;durP2;ratioP2
3916;SDS011;1973;50.518;7.318;2022-07-15T00:00:39;3.90;;;2.37;;
3916;SDS011;1973;50.518;7.318;2022-07-15T00:03:06;3.90;;;2.10;;
3916;SDS011;1973;50.518;7.318;2022-07-15T00:05:32;5.33;;;2.10;;
3916;SDS011;1973;50.518;7.318;2022-07-15T00:07:59;3.70;;;2.73;;
3916;SDS011;1973;50.518;7.318;2022-07-15T00:10:27;4.10;;;2.23;;
3916;SDS011;1973;50.518;7.318;2022-07-15T00:12:55;4.63;;;2.00;;
3916;SDS011;1973;50.518;7.318;2022-07-15T00:15:24;2.13;;;1.93;;
3916;SDS011;1973;50.518;7.318;2022-07-15T00:17:53;3.27;;;2.30;;
3916;SDS011;1973;50.518;7.318;2022-07-15T00:20:20;3.93;;;2.53;;
3916;SDS011;1973;50.518;7.318;2022-07-15T00:22:47;4.77;;;2.47;;
3916;SDS011;1973;50.518;7.318;2022-07-15T00:25:15;7.20;;;2.40;;
3916;SDS011;1973;50.518;7.318;2022-07-15T00:30:23;5.10;;;2.27;;
3916;SDS011;1973;50.518;7.318;2022-07-15T00:32:53;4.20;;;2.77;;
3916;SDS011;1973;50.518;7.318;2022-07-15T00:35:20;3.40;;;2.13;;
3916;SDS011;1973;50.518;7.318;2022-07-15T00:37:46;3.77;;;2.70;;
3916;SDS011;1973;50.518;7.318;2022-07-15T00:40:13;3.37;;;2.00;;
3916;SDS011;1973;50.518;7.318;2022-07-15T00:42:40;3.40;;;2.87;;
3916;SDS011;1973;50.518;7.318;2022-07-15T00:45:16;4.00;;;1.90;;
3916;SDS011;1973;50.518;7.318;2022-07-15T00:47:45;4.43;;;2.37;;
3916;SDS011;1973;50.518;7.318;2022-07-15T00:50:16;4.67;;;2.53;;
3916;SDS011;1973;50.518;7.318;2022-07-15T00:52:45;4.20;;;2.50;;
3916;SDS011;1973;50.518;7.318;2022-07-15T00:55:14;4.93;;;2.40;;
3916;SDS011;1973;50.518;7.318;2022-07-15T00:57:44;2.80;;;2.27;;
3916;SDS011;1973;50.518;7.318;2022-07-15T01:00:12;7.23;;;2.50;;
3916;SDS011;1973;50.518;7.318;2022-07-15T01:02:40;4.80;;;2.50;;
3916;SDS011;1973;50.518;7.318;2022-07-15T01:05:10;3.17;;;2.47;;
3916;SDS011;1973;50.518;7.318;2022-07-15T01:07:37;4.97;;;2.60;;
3916;SDS011;1973;50.518;7.318;2022-07-15T01:10:07;2.63;;;2.10;;
3916;SDS011;1973;50.518;7.318;2022-07-15T01:12:34;5.00;;;3.07;;
3916;SDS011;1973;50.518;7.318;2022-07-15T01:15:06;5.77;;;2.77;;
3916;SDS011;1973;50.518;7.318;2022-07-15T01:17:33;5.23;;;2.40;;
3916;SDS011;1973;50.518;7.318;2022-07-15T01:20:04;3.03;;;2.30;;
3916;SDS011;1973;50.518;7.318;2022-07-15T01:22:31;3.90;;;2.67;;
3916;SDS011;1973;50.518;7.318;2022-07-15T01:24:58;4.23;;;2.97;;
3916;SDS011;1973;50.518;7.318;2022-07-15T01:27:25;10.70;;;2.90;;
3916;SDS011;1973;50.518;7.318;2022-07-15T01:29:52;2.70;;;2.50;;
3916;SDS011;1973;50.518;7.318;2022-07-15T01:32:18;3.43;;;2.80;;
3916;SDS011;1973;50.518;7.318;2022-07-15T01:34:45;4.50;;;2.43;;
3916;SDS011;1973;50.518;7.318;2022-07-15T01:37:15;3.70;;;2.60;;
3916;SDS011;1973;50.518;7.318;2022-07-15T01:39:42;3.20;;;2.40;;
3916;SDS011;1973;50.518;7.318;2022-07-15T01:42:08;2.53;;;2.20;;
3916;SDS011;1973;50.518;7.318;2022-07-15T01:44:35;5.00;;;2.73;;
3916;SDS011;1973;50.518;7.318;2022-07-15T01:47:02;3.53;;;2.40;;
3916;SDS011;1973;50.518;7.318;2022-07-15T01:49:28;10.80;;;2.93;;
3916;SDS011;1973;50.518;7.318;2022-07-15T01:51:59;2.13;;;1.90;;
3916;SDS011;1973;50.518;7.318;2022-07-15T01:54:28;2.90;;;2.57;;
3916;SDS011;1973;50.518;7.318;2022-07-15T01:56:55;3.13;;;2.63;;
3916;SDS011;1973;50.518;7.318;2022-07-15T01:59:22;3.90;;;2.63;;
3916;SDS011;1973;50.518;7.318;2022-07-15T02:01:51;3.03;;;2.50;;
3916;SDS011;1973;50.518;7.318;2022-07-15T02:04:18;4.23;;;2.70;;
3916;SDS011;1973;50.518;7.318;2022-07-15T02:06:45;3.47;;;2.70;;
3916;SDS011;1973;50.518;7.318;2022-07-15T02:09:12;4.27;;;2.77;;
3916;SDS011;1973;50.518;7.318;2022-07-15T02:11:39;3.90;;;2.70;;
3916;SDS011;1973;50.518;7.318;2022-07-15T02:14:06;4.00;;;2.87;;
3916;SDS011;1973;50.518;7.318;2022-07-15T02:16:33;5.33;;;2.67;;
3916;SDS011;1973;50.518;7.318;2022-07-15T02:19:00;3.13;;;2.83;;
3916;SDS011;1973;50.518;7.318;2022-07-15T02:21:26;2.87;;;2.60;;
3916;SDS011;1973;50.518;7.318;2022-07-15T02:23:54;3.70;;;2.50;;
3916;SDS011;1973;50.518;7.318;2022-07-15T02:26:21;2.47;;;2.27;;
3916;SDS011;1973;50.518;7.318;2022-07-15T02:28:48;5.60;;;3.10;;
3916;SDS011;1973;50.518;7.318;2022-07-15T02:31:14;5.60;;;2.43;;
3916;SDS011;1973;50.518;7.318;2022-07-15T02:33:41;3.00;;;2.20;;
3916;SDS011;1973;50.518;7.318;2022-07-15T02:36:08;4.57;;;2.83;;
3916;SDS011;1973;50.518;7.318;2022-07-15T02:38:35;5.73;;;2.80;;
3916;SDS011;1973;50.518;7.318;2022-07-15T02:41:02;2.80;;;2.23;;
3916;SDS011;1973;50.518;7.318;2022-07-15T02:43:29;2.83;;;2.40;;
3916;SDS011;1973;50.518;7.318;2022-07-15T02:45:56;3.80;;;2.03;;
3916;SDS011;1973;50.518;7.318;2022-07-15T02:48:22;5.27;;;2.50;;
3916;SDS011;1973;50.518;7.318;2022-07-15T02:50:49;4.40;;;2.80;;
3916;SDS011;1973;50.518;7.318;2022-07-15T02:53:16;4.17;;;3.00;;
3916;SDS011;1973;50.518;7.318;2022-07-15T02:55:44;3.67;;;3.27;;
3916;SDS011;1973;50.518;7.318;2022-07-15T02:58:10;4.03;;;2.30;;
3916;SDS011;1973;50.518;7.318;2022-07-15T03:00:37;5.20;;;2.70;;
3916;SDS011;1973;50.518;7.318;2022-07-15T03:03:03;3.00;;;2.70;;
3916;SDS011;1973;50.518;7.318;2022-07-15T03:05:30;5.20;;;2.73;;
3916;SDS011;1973;50.518;7.318;2022-07-15T03:07:56;4.73;;;2.70;;
3916;SDS011;1973;50.518;7.318;2022-07-15T03:10:23;2.13;;;1.93;;
3916;SDS011;1973;50.518;7.318;2022-07-15T03:12:49;2.40;;;2.17;;
3916;SDS011;1973;50.518;7.318;2022-07-15T03:15:16;6.13;;;2.33;;
3916;SDS011;1973;50.518;7.318;2022-07-15T03:17:42;5.40;;;2.63;;
3916;SDS011;1973;50.518;7.318;2022-07-15T03:20:09;5.53;;;2.63;;
3916;SDS011;1973;50.518;7.318;2022-07-15T03:22:36;4.67;;;2.40;;
3916;SDS011;1973;50.518;7.318;2022-07-15T03:25:03;3.30;;;2.50;;
3916;SDS011;1973;50.518;7.318;2022-07-15T03:27:30;2.70;;;2.40;;
3916;SDS011;1973;50.518;7.318;2022-07-15T03:29:57;4.10;;;2.57;;
3916;SDS011;1973;50.518;7.318;2022-07-15T03:32:23;5.07;;;2.60;;
3916;SDS011;1973;50.518;7.318;2022-07-15T03:34:50;2.73;;;2.27;;
3916;SDS011;1973;50.518;7.318;2022-07-15T03:37:16;2.33;;;2.07;;
3916;SDS011;1973;50.518;7.318;2022-07-15T03:39:43;6.53;;;2.77;;
3916;SDS011;1973;50.518;7.318;2022-07-15T03:42:10;6.03;;;2.30;;
3916;SDS011;1973;50.518;7.318;2022-07-15T03:44:36;3.33;;;2.67;;
3916;SDS011;1973;50.518;7.318;2022-07-15T03:47:03;7.03;;;2.23;;
3916;SDS011;1973;50.518;7.318;2022-07-15T03:49:29;3.50;;;2.50;;
3916;SDS011;1973;50.518;7.318;2022-07-15T03:51:56;5.07;;;2.60;;
3916;SDS011;1973;50.518;7.318;2022-07-15T03:54:22;5.20;;;2.60;;
3916;SDS011;1973;50.518;7.318;2022-07-15T03:56:49;5.20;;;2.73;;
3916;SDS011;1973;50.518;7.318;2022-07-15T03:59:16;5.60;;;2.70;;
3916;SDS011;1973;50.518;7.318;2022-07-15T04:01:43;4.50;;;3.20;;
3916;SDS011;1973;50.518;7.318;2022-07-15T04:04:10;3.37;;;2.50;;
3916;SDS011;1973;50.518;7.318;2022-07-15T04:06:36;3.93;;;2.17;;
3916;SDS011;1973;50.518;7.318;2022-07-15T04:09:03;5.33;;;3.00;;
3916;SDS011;1973;50.518;7.318;2022-07-15T04:11:29;3.60;;;2.70;;
3916;SDS011;1973;50.518;7.318;2022-07-15T04:13:56;4.53;;;2.60;;
3916;SDS011;1973;50.518;7.318;2022-07-15T04:16:22;4.27;;;2.07;;
3916;SDS011;1973;50.518;7.318;2022-07-15T04:18:49;3.07;;;2.20;;
3916;SDS011;1973;50.518;7.318;2022-07-15T04:21:17;3.30;;;2.50;;
3916;SDS011;1973;50.518;7.318;2022-07-15T04:23:45;6.53;;;2.93;;
3916;SDS011;1973;50.518;7.318;2022-07-15T04:26:11;2.57;;;2.37;;
3916;SDS011;1973;50.518;7.318;2022-07-15T04:28:38;3.93;;;2.70;;
3916;SDS011;1973;50.518;7.318;2022-07-15T04:31:04;5.13;;;2.57;;
3916;SDS011;1973;50.518;7.318;2022-07-15T04:33:31;2.80;;;2.23;;
3916;SDS011;1973;50.518;7.318;2022-07-15T04:35:57;5.33;;;2.47;;
3916;SDS011;1973;50.518;7.318;2022-07-15T04:38:24;6.07;;;2.80;;
3916;SDS011;1973;50.518;7.318;2022-07-15T04:40:50;6.07;;;2.27;;
3916;SDS011;1973;50.518;7.318;2022-07-15T04:43:17;4.57;;;2.40;;
3916;SDS011;1973;50.518;7.318;2022-07-15T04:45:43;5.40;;;2.93;;
3916;SDS011;1973;50.518;7.318;2022-07-15T04:48:10;4.07;;;2.23;;
3916;SDS011;1973;50.518;7.318;2022-07-15T04:50:55;6.20;;;3.20;;
3916;SDS011;1973;50.518;7.318;2022-07-15T04:53:23;3.33;;;2.53;;
3916;SDS011;1973;50.518;7.318;2022-07-15T04:55:49;3.80;;;2.00;;
3916;SDS011;1973;50.518;7.318;2022-07-15T04:58:16;4.00;;;2.37;;
3916;SDS011;1973;50.518;7.318;2022-07-15T05:00:43;3.90;;;2.63;;
3916;SDS011;1973;50.518;7.318;2022-07-15T05:03:11;2.53;;;2.20;;
3916;SDS011;1973;50.518;7.318;2022-07-15T05:05:39;5.03;;;2.50;;
3916;SDS011;1973;50.518;7.318;2022-07-15T05:08:06;3.43;;;2.17;;
3916;SDS011;1973;50.518;7.318;2022-07-15T05:10:33;10.00;;;2.70;;
3916;SDS011;1973;50.518;7.318;2022-07-15T05:13:03;8.10;;;2.53;;
3916;SDS011;1973;50.518;7.318;2022-07-15T05:15:30;13.23;;;3.67;;
3916;SDS011;1973;50.518;7.318;2022-07-15T05:17:56;5.67;;;3.43;;
3916;SDS011;1973;50.518;7.318;2022-07-15T05:20:23;6.00;;;3.60;;
3916;SDS011;1973;50.518;7.318;2022-07-15T05:22:49;6.90;;;3.20;;
3916;SDS011;1973;50.518;7.318;2022-07-15T05:25:16;4.03;;;2.80;;
3916;SDS011;1973;50.518;7.318;2022-07-15T05:27:42;4.60;;;2.57;;
3916;SDS011;1973;50.518;7.318;2022-07-15T05:30:10;5.40;;;2.50;;
3916;SDS011;1973;50.518;7.318;2022-07-15T05:32:39;7.93;;;2.70;;
3916;SDS011;1973;50.518;7.318;2022-07-15T05:35:05;6.80;;;3.43;;
3916;SDS011;1973;50.518;7.318;2022-07-15T05:37:32;5.60;;;2.43;;
3916;SDS011;1973;50.518;7.318;2022-07-15T05:39:58;8.10;;;3.40;;
3916;SDS011;1973;50.518;7.318;2022-07-15T05:42:25;7.23;;;2.70;;
3916;SDS011;1973;50.518;7.318;2022-07-15T05:44:52;6.23;;;3.07;;
3916;SDS011;1973;50.518;7.318;2022-07-15T05:47:18;7.93;;;3.10;;
3916;SDS011;1973;50.518;7.318;2022-07-15T05:49:45;7.20;;;3.00;;
3916;SDS011;1973;50.518;7.318;2022-07-15T05:52:11;8.37;;;4.30;;
3916;SDS011;1973;50.518;7.318;2022-07-15T05:54:38;5.40;;;2.80;;
3916;SDS011;1973;50.518;7.318;2022-07-15T05:57:04;6.10;;;2.87;;
3916;SDS011;1973;50.518;7.318;2022-07-15T05:59:31;7.23;;;2.80;;
3916;SDS011;1973;50.518;7.318;2022-07-15T06:01:58;7.00;;;2.83;;
3916;SDS011;1973;50.518;7.318;2022-07-15T06:04:25;8.30;;;3.27;;
3916;SDS011;1973;50.518;7.318;2022-07-15T06:06:55;6.93;;;2.77;;
3916;SDS011;1973;50.518;7.318;2022-07-15T06:09:21;7.07;;;3.00;;
3916;SDS011;1973;50.518;7.318;2022-07-15T06:11:48;9.13;;;3.10;;
3916;SDS011;1973;50.518;7.318;2022-07-15T06:14:15;5.47;;;2.60;;
3916;SDS011;1973;50.518;7.318;2022-07-15T06:16:42;8.27;;;3.17;;
3916;SDS011;1973;50.518;7.318;2022-07-15T06:19:08;9.00;;;2.70;;
3916;SDS011;1973;50.518;7.318;2022-07-15T06:21:36;6.97;;;2.63;;
3916;SDS011;1973;50.518;7.318;2022-07-15T06:24:03;8.67;;;2.67;;
3916;SDS011;1973;50.518;7.318;2022-07-15T06:26:30;4.50;;;2.70;;
3916;SDS011;1973;50.518;7.318;2022-07-15T06:28:57;8.93;;;2.80;;
3916;SDS011;1973;50.518;7.318;2022-07-15T06:31:23;4.77;;;2.77;;
3916;SDS011;1973;50.518;7.318;2022-07-15T06:33:50;8.43;;;2.87;;
3916;SDS011;1973;50.518;7.318;2022-07-15T06:36:16;6.70;;;3.00;;
3916;SDS011;1973;50.518;7.318;2022-07-15T06:38:43;5.63;;;2.80;;
3916;SDS011;1973;50.518;7.318;2022-07-15T06:41:09;6.63;;;2.80;;
3916;SDS011;1973;50.518;7.318;2022-07-15T06:43:36;7.77;;;3.33;;
3916;SDS011;1973;50.518;7.318;2022-07-15T06:46:02;7.50;;;2.90;;
3916;SDS011;1973;50.518;7.318;2022-07-15T06:48:29;10.37;;;2.77;;
3916;SDS011;1973;50.518;7.318;2022-07-15T06:50:55;5.53;;;2.77;;
3916;SDS011;1973;50.518;7.318;2022-07-15T06:53:22;5.97;;;2.80;;
3916;SDS011;1973;50.518;7.318;2022-07-15T06:55:48;8.53;;;3.63;;
3916;SDS011;1973;50.518;7.318;2022-07-15T06:58:15;5.37;;;3.77;;
3916;SDS011;1973;50.518;7.318;2022-07-15T07:00:41;9.00;;;3.10;;
3916;SDS011;1973;50.518;7.318;2022-07-15T07:03:08;4.10;;;3.00;;
3916;SDS011;1973;50.518;7.318;2022-07-15T07:05:34;4.50;;;3.00;;
3916;SDS011;1973;50.518;7.318;2022-07-15T07:08:01;8.43;;;3.63;;
3916;SDS011;1973;50.518;7.318;2022-07-15T07:10:27;7.70;;;3.33;;
3916;SDS011;1973;50.518;7.318;2022-07-15T07:12:54;6.33;;;2.80;;
3916;SDS011;1973;50.518;7.318;2022-07-15T07:15:20;5.80;;;3.10;;
3916;SDS011;1973;50.518;7.318;2022-07-15T07:17:53;6.80;;;3.00;;
3916;SDS011;1973;50.518;7.318;2022-07-15T07:20:20;5.97;;;2.83;;
3916;SDS011;1973;50.518;7.318;2022-07-15T07:22:46;5.80;;;3.07;;
3916;SDS011;1973;50.518;7.318;2022-07-15T07:25:13;8.60;;;3.03;;
3916;SDS011;1973;50.518;7.318;2022-07-15T07:27:39;3.13;;;2.40;;
3916;SDS011;1973;50.518;7.318;2022-07-15T07:30:06;7.83;;;2.40;;
3916;SDS011;1973;50.518;7.318;2022-07-15T07:32:33;6.03;;;2.00;;
3916;SDS011;1973;50.518;7.318;2022-07-15T07:35:05;8.17;;;4.03;;
3916;SDS011;1973;50.518;7.318;2022-07-15T07:37:35;4.70;;;2.57;;
3916;SDS011;1973;50.518;7.318;2022-07-15T07:40:04;6.57;;;3.33;;
3916;SDS011;1973;50.518;7.318;2022-07-15T07:42:32;8.43;;;2.90;;
3916;SDS011;1973;50.518;7.318;2022-07-15T07:44:58;8.73;;;4.00;;
3916;SDS011;1973;50.518;7.318;2022-07-15T07:47:27;7.93;;;2.93;;
3916;SDS011;1973;50.518;7.318;2022-07-15T07:49:54;4.40;;;2.87;;
3916;SDS011;1973;50.518;7.318;2022-07-15T07:52:20;6.00;;;2.60;;
3916;SDS011;1973;50.518;7.318;2022-07-15T07:54:53;5.87;;;3.27;;
3916;SDS011;1973;50.518;7.318;2022-07-15T07:57:19;6.60;;;3.13;;
3916;SDS011;1973;50.518;7.318;2022-07-15T07:59:46;6.00;;;3.53;;
3916;SDS011;1973;50.518;7.318;2022-07-15T08:02:19;10.43;;;3.50;;
3916;SDS011;1973;50.518;7.318;2022-07-15T08:04:46;9.63;;;4.17;;
3916;SDS011;1973;50.518;7.318;2022-07-15T08:07:12;5.97;;;3.80;;
3916;SDS011;1973;50.518;7.318;2022-07-15T08:09:39;13.60;;;4.63;;
3916;SDS011;1973;50.518;7.318;2022-07-15T08:12:05;7.97;;;5.47;;
3916;SDS011;1973;50.518;7.318;2022-07-15T08:14:32;4.67;;;3.67;;
3916;SDS011;1973;50.518;7.318;2022-07-15T08:16:58;5.70;;;3.10;;
3916;SDS011;1973;50.518;7.318;2022-07-15T08:19:25;7.37;;;3.63;;
3916;SDS011;1973;50.518;7.318;2022-07-15T08:21:53;6.17;;;3.40;;
3916;SDS011;1973;50.518;7.318;2022-07-15T08:24:19;6.93;;;3.60;;
3916;SDS011;1973;50.518;7.318;2022-07-15T08:26:46;7.73;;;3.60;;
3916;SDS011;1973;50.518;7.318;2022-07-15T08:29:12;8.20;;;4.57;;
3916;SDS011;1973;50.518;7.318;2022-07-15T08:31:39;9.37;;;3.70;;
3916;SDS011;1973;50.518;7.318;2022-07-15T08:34:05;12.03;;;3.60;;
3916;SDS011;1973;50.518;7.318;2022-07-15T08:36:33;4.40;;;3.50;;
3916;SDS011;1973;50.518;7.318;2022-07-15T08:39:00;6.90;;;4.10;;
3916;SDS011;1973;50.518;7.318;2022-07-15T08:41:28;5.87;;;3.67;;
3916;SDS011;1973;50.518;7.318;2022-07-15T08:43:54;8.60;;;5.43;;
3916;SDS011;1973;50.518;7.318;2022-07-15T08:46:21;7.37;;;3.83;;
3916;SDS011;1973;50.518;7.318;2022-07-15T08:48:52;7.17;;;3.40;;
3916;SDS011;1973;50.518;7.318;2022-07-15T08:51:27;11.30;;;3.70;;
3916;SDS011;1973;50.518;7.318;2022-07-15T08:53:56;6.30;;;3.50;;
3916;SDS011;1973;50.518;7.318;2022-07-15T08:56:23;5.60;;;3.63;;
3916;SDS011;1973;50.518;7.318;2022-07-15T08:58:50;4.90;;;3.50;;
3916;SDS011;1973;50.518;7.318;2022-07-15T09:01:26;4.67;;;3.60;;
3916;SDS011;1973;50.518;7.318;2022-07-15T09:03:57;10.43;;;3.63;;
3916;SDS011;1973;50.518;7.318;2022-07-15T09:11:55;4.23;;;2.70;;
3916;SDS011;1973;50.518;7.318;2022-07-15T09:14:35;5.13;;;2.63;;
3916;SDS011;1973;50.518;7.318;2022-07-15T09:22:21;5.63;;;3.10;;
3916;SDS011;1973;50.518;7.318;2022-07-15T09:25:07;3.30;;;2.30;;
3916;SDS011;1973;50.518;7.318;2022-07-15T09:27:36;5.77;;;2.57;;
3916;SDS011;1973;50.518;7.318;2022-07-15T09:33:13;6.50;;;2.07;;
3916;SDS011;1973;50.518;7.318;2022-07-15T09:36:03;4.67;;;2.10;;
3916;SDS011;1973;50.518;7.318;2022-07-15T09:38:32;3.83;;;2.37;;
3916;SDS011;1973;50.518;7.318;2022-07-15T09:41:08;5.03;;;2.40;;
3916;SDS011;1973;50.518;7.318;2022-07-15T09:43:50;3.13;;;2.20;;
3916;SDS011;1973;50.518;7.318;2022-07-15T09:46:19;3.90;;;1.90;;
3916;SDS011;1973;50.518;7.318;2022-07-15T09:48:48;6.20;;;2.20;;
3916;SDS011;1973;50.518;7.318;2022-07-15T09:51:16;3.07;;;2.00;;
3916;SDS011;1973;50.518;7.318;2022-07-15T09:53:43;3.43;;;2.10;;
3916;SDS011;1973;50.518;7.318;2022-07-15T09:56:13;3.43;;;1.43;;
3916;SDS011;1973;50.518;7.318;2022-07-15T09:58:41;6.77;;;1.80;;
3916;SDS011;1973;50.518;7.318;2022-07-15T10:01:10;3.77;;;1.70;;
3916;SDS011;1973;50.518;7.318;2022-07-15T10:03:37;4.90;;;1.80;;
3916;SDS011;1973;50.518;7.318;2022-07-15T10:06:05;2.53;;;1.60;;
3916;SDS011;1973;50.518;7.318;2022-07-15T10:08:33;5.53;;;1.80;;
3916;SDS011;1973;50.518;7.318;2022-07-15T10:11:00;2.77;;;1.53;;
3916;SDS011;1973;50.518;7.318;2022-07-15T10:13:39;2.70;;;2.33;;
3916;SDS011;1973;50.518;7.318;2022-07-15T10:16:21;4.40;;;1.77;;
3916;SDS011;1973;50.518;7.318;2022-07-15T10:19:06;2.10;;;1.57;;
3916;SDS011;1973;50.518;7.318;2022-07-15T10:21:44;2.20;;;1.57;;
3916;SDS011;1973;50.518;7.318;2022-07-15T10:24:35;4.10;;;1.70;;
3916;SDS011;1973;50.518;7.318;2022-07-15T10:27:14;5.80;;;1.90;;
3916;SDS011;1973;50.518;7.318;2022-07-15T10:29:47;4.77;;;1.80;;
3916;SDS011;1973;50.518;7.318;2022-07-15T10:32:14;7.00;;;1.73;;
3916;SDS011;1973;50.518;7.318;2022-07-15T10:34:43;3.10;;;1.80;;
3916;SDS011;1973;50.518;7.318;2022-07-15T10:37:10;3.03;;;1.90;;
3916;SDS011;1973;50.518;7.318;2022-07-15T10:39:55;4.70;;;1.67;;
3916;SDS011;1973;50.518;7.318;2022-07-15T10:42:30;2.60;;;1.80;;
3916;SDS011;1973;50.518;7.318;2022-07-15T10:45:24;2.30;;;1.70;;
3916;SDS011;1973;50.518;7.318;2022-07-15T10:48:11;4.90;;;2.30;;
3916;SDS011;1973;50.518;7.318;2022-07-15T10:50:53;2.53;;;1.57;;
3916;SDS011;1973;50.518;7.318;2022-07-15T10:53:21;3.87;;;1.50;;
3916;SDS011;1973;50.518;7.318;2022-07-15T10:55:50;2.30;;;1.30;;
3916;SDS011;1973;50.518;7.318;2022-07-15T10:58:17;4.10;;;2.10;;
3916;SDS011;1973;50.518;7.318;2022-07-15T11:00:43;1.50;;;1.10;;
3916;SDS011;1973;50.518;7.318;2022-07-15T11:03:13;2.33;;;1.13;;
3916;SDS011;1973;50.518;7.318;2022-07-15T11:08:45;4.03;;;1.80;;
3916;SDS011;1973;50.518;7.318;2022-07-15T11:13:43;4.10;;;1.80;;
3916;SDS011;1973;50.518;7.318;2022-07-15T11:16:12;3.23;;;1.30;;
3916;SDS011;1973;50.518;7.318;2022-07-15T11:18:46;2.40;;;1.50;;
3916;SDS011;1973;50.518;7.318;2022-07-15T11:21:14;3.23;;;1.50;;
3916;SDS011;1973;50.518;7.318;2022-07-15T11:23:42;2.37;;;1.70;;
3916;SDS011;1973;50.518;7.318;2022-07-15T11:26:09;1.60;;;1.33;;
3916;SDS011;1973;50.518;7.318;2022-07-15T11:28:36;2.43;;;1.30;;
3916;SDS011;1973;50.518;7.318;2022-07-15T11:31:03;4.83;;;1.50;;
3916;SDS011;1973;50.518;7.318;2022-07-15T11:33:29;4.00;;;1.30;;
3916;SDS011;1973;50.518;7.318;2022-07-15T11:35:57;7.23;;;1.97;;
3916;SDS011;1973;50.518;7.318;2022-07-15T11:38:26;1.87;;;1.20;;
3916;SDS011;1973;50.518;7.318;2022-07-15T11:40:55;2.33;;;1.27;;
3916;SDS011;1973;50.518;7.318;2022-07-15T11:43:59;3.60;;;1.40;;
3916;SDS011;1973;50.518;7.318;2022-07-15T11:46:55;4.10;;;2.37;;
3916;SDS011;1973;50.518;7.318;2022-07-15T11:49:27;3.70;;;1.57;;
3916;SDS011;1973;50.518;7.318;2022-07-15T11:52:12;3.30;;;1.37;;
3916;SDS011;1973;50.518;7.318;2022-07-15T11:54:49;3.53;;;1.50;;
3916;SDS011;1973;50.518;7.318;2022-07-15T11:57:16;3.13;;;1.67;;
3916;SDS011;1973;50.518;7.318;2022-07-15T11:59:56;2.40;;;1.70;;
3916;SDS011;1973;50.518;7.318;2022-07-15T12:02:25;2.17;;;1.63;;
3916;SDS011;1973;50.518;7.318;2022-07-15T12:05:01;7.60;;;2.60;;
3916;SDS011;1973;50.518;7.318;2022-07-15T12:07:41;7.03;;;3.07;;
3916;SDS011;1973;50.518;7.318;2022-07-15T12:10:13;4.50;;;2.47;;
3916;SDS011;1973;50.518;7.318;2022-07-15T12:12:41;6.17;;;2.00;;
3916;SDS011;1973;50.518;7.318;2022-07-15T12:15:22;3.97;;;2.10;;
3916;SDS011;1973;50.518;7.318;2022-07-15T12:17:49;2.93;;;1.50;;
3916;SDS011;1973;50.518;7.318;2022-07-15T12:20:16;3.33;;;2.00;;
3916;SDS011;1973;50.518;7.318;2022-07-15T12:26:06;4.00;;;1.93;;
3916;SDS011;1973;50.518;7.318;2022-07-15T12:28:34;5.13;;;1.93;;
3916;SDS011;1973;50.518;7.318;2022-07-15T12:31:02;3.00;;;1.70;;
3916;SDS011;1973;50.518;7.318;2022-07-15T12:33:36;2.40;;;1.70;;
3916;SDS011;1973;50.518;7.318;2022-07-15T12:36:13;5.00;;;1.97;;
3916;SDS011;1973;50.518;7.318;2022-07-15T12:38:45;4.27;;;1.90;;
3916;SDS011;1973;50.518;7.318;2022-07-15T12:41:55;6.83;;;2.50;;
3916;SDS011;1973;50.518;7.318;2022-07-15T12:44:25;2.60;;;1.90;;
3916;SDS011;1973;50.518;7.318;2022-07-15T12:46:55;3.57;;;2.10;;
3916;SDS011;1973;50.518;7.318;2022-07-15T12:49:43;2.80;;;2.13;;
3916;SDS011;1973;50.518;7.318;2022-07-15T12:54:53;7.53;;;2.60;;
3916;SDS011;1973;50.518;7.318;2022-07-15T12:57:22;9.77;;;3.53;;
3916;SDS011;1973;50.518;7.318;2022-07-15T12:59:51;4.47;;;2.47;;
3916;SDS011;1973;50.518;7.318;2022-07-15T13:02:19;3.40;;;3.10;;
3916;SDS011;1973;50.518;7.318;2022-07-15T13:04:47;6.33;;;3.07;;
3916;SDS011;1973;50.518;7.318;2022-07-15T13:07:14;3.87;;;2.70;;
3916;SDS011;1973;50.518;7.318;2022-07-15T13:09:42;4.70;;;3.23;;
3916;SDS011;1973;50.518;7.318;2022-07-15T13:12:10;3.50;;;2.80;;
3916;SDS011;1973;50.518;7.318;2022-07-15T13:14:38;6.23;;;3.40;;
3916;SDS011;1973;50.518;7.318;2022-07-15T13:17:05;4.30;;;3.10;;
3916;SDS011;1973;50.518;7.318;2022-07-15T13:19:33;3.83;;;2.70;;
3916;SDS011;1973;50.518;7.318;2022-07-15T13:22:00;6.37;;;2.83;;
3916;SDS011;1973;50.518;7.318;2022-07-15T13:24:27;2.77;;;2.57;;
3916;SDS011;1973;50.518;7.318;2022-07-15T13:26:54;3.53;;;2.73;;
3916;SDS011;1973;50.518;7.318;2022-07-15T13:29:21;3.87;;;3.27;;
3916;SDS011;1973;50.518;7.318;2022-07-15T13:31:47;2.67;;;2.43;;
3916;SDS011;1973;50.518;7.318;2022-07-15T13:34:14;4.30;;;3.10;;
3916;SDS011;1973;50.518;7.318;2022-07-15T13:36:40;4.37;;;2.53;;
3916;SDS011;1973;50.518;7.318;2022-07-15T13:39:06;4.80;;;2.80;;
3916;SDS011;1973;50.518;7.318;2022-07-15T13:41:33;4.13;;;2.73;;
3916;SDS011;1973;50.518;7.318;2022-07-15T13:43:59;3.70;;;2.90;;
3916;SDS011;1973;50.518;7.318;2022-07-15T13:46:26;4.27;;;2.80;;
3916;SDS011;1973;50.518;7.318;2022-07-15T13:48:52;4.43;;;2.90;;
3916;SDS011;1973;50.518;7.318;2022-07-15T13:51:19;5.43;;;2.57;;
3916;SDS011;1973;50.518;7.318;2022-07-15T13:53:52;2.83;;;2.50;;
3916;SDS011;1973;50.518;7.318;2022-07-15T13:56:21;2.93;;;2.13;;
3916;SDS011;1973;50.518;7.318;2022-07-15T13:58:48;3.10;;;2.80;;
3916;SDS011;1973;50.518;7.318;2022-07-15T14:01:15;6.83;;;3.50;;
3916;SDS011;1973;50.518;7.318;2022-07-15T14:03:42;5.67;;;2.70;;
3916;SDS011;1973;50.518;7.318;2022-07-15T14:06:11;6.80;;;3.07;;
3916;SDS011;1973;50.518;7.318;2022-07-15T14:08:38;3.50;;;2.80;;
3916;SDS011;1973;50.518;7.318;2022-07-15T14:11:04;3.37;;;3.07;;
3916;SDS011;1973;50.518;7.318;2022-07-15T14:13:31;3.27;;;2.90;;
3916;SDS011;1973;50.518;7.318;2022-07-15T14:15:57;3.07;;;2.70;;
3916;SDS011;1973;50.518;7.318;2022-07-15T14:18:23;4.67;;;2.73;;
3916;SDS011;1973;50.518;7.318;2022-07-15T14:21:12;3.93;;;2.43;;
3916;SDS011;1973;50.518;7.318;2022-07-15T14:23:40;4.00;;;2.37;;
3916;SDS011;1973;50.518;7.318;2022-07-15T14:26:07;4.20;;;2.57;;
3916;SDS011;1973;50.518;7.318;2022-07-15T14:28:34;3.20;;;2.23;;
3916;SDS011;1973;50.518;7.318;2022-07-15T14:31:01;4.13;;;2.60;;
3916;SDS011;1973;50.518;7.318;2022-07-15T14:33:27;3.00;;;2.10;;
3916;SDS011;1973;50.518;7.318;2022-07-15T14:35:54;3.77;;;2.17;;
3916;SDS011;1973;50.518;7.318;2022-07-15T14:38:20;2.50;;;1.97;;
3916;SDS011;1973;50.518;7.318;2022-07-15T14:40:46;5.40;;;1.80;;
3916;SDS011;1973;50.518;7.318;2022-07-15T14:43:13;3.10;;;1.93;;
3916;SDS011;1973;50.518;7.318;2022-07-15T14:45:39;2.40;;;1.60;;
3916;SDS011;1973;50.518;7.318;2022-07-15T14:48:06;6.70;;;2.10;;
3916;SDS011;1973;50.518;7.318;2022-07-15T14:50:33;5.93;;;1.93;;
3916;SDS011;1973;50.518;7.318;2022-07-15T14:53:00;4.27;;;2.20;;
3916;SDS011;1973;50.518;7.318;2022-07-15T14:55:26;5.50;;;3.33;;
3916;SDS011;1973;50.518;7.318;2022-07-15T14:57:58;5.20;;;2.50;;
3916;SDS011;1973;50.518;7.318;2022-07-15T15:00:24;3.00;;;2.30;;
3916;SDS011;1973;50.518;7.318;2022-07-15T15:02:51;5.10;;;1.83;;
3916;SDS011;1973;50.518;7.318;2022-07-15T15:05:17;3.93;;;1.87;;
3916;SDS011;1973;50.518;7.318;2022-07-15T15:07:44;3.67;;;1.90;;
3916;SDS011;1973;50.518;7.318;2022-07-15T15:10:10;6.30;;;2.00;;
3916;SDS011;1973;50.518;7.318;2022-07-15T15:12:37;3.20;;;1.43;;
3916;SDS011;1973;50.518;7.318;2022-07-15T15:15:04;4.63;;;3.07;;
3916;SDS011;1973;50.518;7.318;2022-07-15T15:17:31;3.27;;;2.50;;
3916;SDS011;1973;50.518;7.318;2022-07-15T15:20:06;4.27;;;1.87;;
3916;SDS011;1973;50.518;7.318;2022-07-15T15:22:33;4.20;;;1.90;;
3916;SDS011;1973;50.518;7.318;2022-07-15T15:25:01;4.53;;;1.47;;
3916;SDS011;1973;50.518;7.318;2022-07-15T15:27:28;3.20;;;1.67;;
3916;SDS011;1973;50.518;7.318;2022-07-15T15:29:54;3.83;;;1.40;;
3916;SDS011;1973;50.518;7.318;2022-07-15T15:32:21;3.60;;;1.70;;
3916;SDS011;1973;50.518;7.318;2022-07-15T15:34:48;4.30;;;1.70;;
3916;SDS011;1973;50.518;7.318;2022-07-15T15:37:15;4.80;;;2.30;;
3916;SDS011;1973;50.518;7.318;2022-07-15T15:39:42;4.70;;;1.50;;
3916;SDS011;1973;50.518;7.318;2022-07-15T15:42:09;1.80;;;1.37;;
3916;SDS011;1973;50.518;7.318;2022-07-15T15:44:36;2.90;;;1.27;;
3916;SDS011;1973;50.518;7.318;2022-07-15T15:47:03;3.23;;;1.30;;
3916;SDS011;1973;50.518;7.318;2022-07-15T15:49:29;1.70;;;1.03;;
3916;SDS011;1973;50.518;7.318;2022-07-15T15:51:56;3.53;;;1.30;;